Time;durP1;ratioP1;P1;durP2;ratioP2;P2;SDS_P1;SDS_P2;PMS_P1;PMS_P2;Temp;Humidity;BMP_temperature;BMP_pressure;BME280_temperature;BME280_humidity;BME280_pressure;Samples;Min_cycle;Max_cycle;Signal;HPM_P1;HPM_P2
2021/05/10 00:02:19;;;;;;;5.55;2.80;;;20.30;54.90;;;;;;5041588;28;20045;-74
2021/05/10 00:04:45;;;;;;;5.43;2.72;;;20.10;55.30;;;;;;5042907;28;20053;-73
2021/05/10 00:07:12;;;;;;;6.82;2.95;;;20.10;55.30;;;;;;5039621;28;20074;-73
2021/05/10 00:09:38;;;;;;;6.80;3.40;;;20.10;55.10;;;;;;5041811;28;20687;-72
2021/05/10 00:12:05;;;;;;;5.53;3.10;;;20.10;55.30;;;;;;5041902;28;21030;-71
2021/05/10 00:14:44;;;;;;;6.97;3.15;;;20.10;55.30;;;;;;5042564;28;20114;-71
2021/05/10 00:17:11;;;;;;;8.65;3.50;;;20.10;55.40;;;;;;5041257;28;20136;-71
2021/05/10 00:19:37;;;;;;;4.30;2.90;;;20.10;55.30;;;;;;5042787;28;20072;-71
2021/05/10 00:22:04;;;;;;;7.20;3.22;;;20.00;55.80;;;;;;5039379;28;20064;-72
2021/05/10 00:24:31;;;;;;;7.13;3.33;;;20.00;55.70;;;;;;5042912;28;20141;-72
2021/05/10 00:26:57;;;;;;;6.68;3.60;;;20.20;55.40;;;;;;5042092;28;20099;-71
2021/05/10 00:29:24;;;;;;;5.43;3.08;;;20.30;55.10;;;;;;5037802;28;21427;-74
2021/05/10 00:31:50;;;;;;;4.57;2.67;;;20.30;54.90;;;;;;5041207;28;20172;-73
2021/05/10 00:34:16;;;;;;;4.25;3.42;;;20.40;54.70;;;;;;5041463;28;20077;-71
2021/05/10 00:36:43;;;;;;;4.65;3.03;;;20.40;54.70;;;;;;5039816;28;20099;-71
2021/05/10 00:39:10;;;;;;;5.43;3.17;;;20.40;54.60;;;;;;5041123;28;20049;-73
2021/05/10 00:41:36;;;;;;;5.78;3.67;;;20.40;54.60;;;;;;5040957;28;20558;-73
2021/05/10 00:44:04;;;;;;;7.20;3.05;;;20.30;54.70;;;;;;5042154;28;20104;-72
2021/05/10 00:46:31;;;;;;;8.27;3.55;;;20.30;54.90;;;;;;5043238;28;20076;-72
2021/05/10 00:48:59;;;;;;;5.43;3.70;;;20.20;55.60;;;;;;5044895;28;20060;-72
2021/05/10 00:51:26;;;;;;;7.97;4.20;;;20.20;55.10;;;;;;5046145;28;20303;-73
2021/05/10 00:53:52;;;;;;;9.43;4.47;;;20.20;55.20;;;;;;5044819;28;20099;-72
2021/05/10 00:56:18;;;;;;;8.77;4.43;;;20.10;55.30;;;;;;5046711;28;20057;-72
2021/05/10 00:58:46;;;;;;;7.05;4.30;;;20.10;55.50;;;;;;5041320;28;20068;-71
2021/05/10 01:01:13;;;;;;;5.75;3.95;;;20.20;55.60;;;;;;5045299;28;20041;-72
2021/05/10 01:03:40;;;;;;;5.47;4.10;;;20.10;55.60;;;;;;5044208;28;20057;-72
2021/05/10 01:06:07;;;;;;;7.45;4.20;;;20.10;55.60;;;;;;5044251;28;20052;-72
2021/05/10 01:08:33;;;;;;;7.18;4.30;;;20.10;55.70;;;;;;5045227;28;20073;-72
2021/05/10 01:10:59;;;;;;;4.45;3.47;;;20.10;55.70;;;;;;5046636;28;20060;-72
2021/05/10 01:13:26;;;;;;;11.18;4.00;;;20.00;55.60;;;;;;5043925;28;20045;-73
2021/05/10 01:15:53;;;;;;;7.07;3.55;;;20.00;55.70;;;;;;5043201;28;20103;-72
2021/05/10 01:18:21;;;;;;;5.10;3.20;;;20.00;55.90;;;;;;5045362;28;20236;-73
2021/05/10 01:20:49;;;;;;;9.18;3.50;;;19.90;56.00;;;;;;5044940;28;20551;-72
2021/05/10 01:23:16;;;;;;;6.35;3.20;;;19.80;56.30;;;;;;5056728;28;20064;-73
2021/05/10 01:25:44;;;;;;;6.82;3.63;;;19.70;56.40;;;;;;5042513;28;20052;-72
2021/05/10 01:28:10;;;;;;;4.43;3.25;;;19.90;56.30;;;;;;5044100;28;20080;-74
2021/05/10 01:30:43;;;;;;;4.72;2.47;;;19.80;56.50;;;;;;5044358;28;20186;-72
2021/05/10 01:33:11;;;;;;;5.30;2.70;;;19.70;56.60;;;;;;5042040;28;20059;-73
2021/05/10 01:35:44;;;;;;;8.88;3.38;;;19.70;56.50;;;;;;5044699;28;20049;-73
2021/05/10 01:38:11;;;;;;;10.45;3.20;;;19.70;56.30;;;;;;5045756;28;20099;-74
2021/05/10 01:40:37;;;;;;;5.55;3.13;;;19.70;56.30;;;;;;5043501;28;20572;-72
2021/05/10 01:43:05;;;;;;;5.40;2.83;;;19.70;56.10;;;;;;5044177;28;20084;-72
2021/05/10 01:45:32;;;;;;;7.35;3.30;;;19.70;56.20;;;;;;5044495;28;20124;-73
2021/05/10 01:48:03;;;;;;;4.95;2.80;;;19.70;56.40;;;;;;5042682;28;20693;-72
2021/05/10 01:50:30;;;;;;;5.28;2.83;;;19.60;56.50;;;;;;5043579;28;20056;-72
2021/05/10 01:52:57;;;;;;;8.98;2.42;;;19.60;56.60;;;;;;5043026;28;20056;-72
2021/05/10 01:55:24;;;;;;;3.97;2.58;;;19.50;57.10;;;;;;5044733;28;20169;-71
2021/05/10 01:57:57;;;;;;;3.45;2.40;;;19.30;57.40;;;;;;5044640;28;20118;-72
2021/05/10 02:00:40;;;;;;;6.50;2.67;;;19.20;57.90;;;;;;5044096;28;20052;-72
2021/05/10 02:03:10;;;;;;;3.30;2.40;;;19.10;58.20;;;;;;5038855;28;20080;-74
2021/05/10 02:05:37;;;;;;;7.20;3.13;;;19.00;58.30;;;;;;5043972;28;20076;-73
2021/05/10 02:08:05;;;;;;;5.78;2.47;;;19.00;58.20;;;;;;5042408;28;20114;-73
2021/05/10 02:10:35;;;;;;;7.25;2.83;;;19.10;58.10;;;;;;5044136;28;20177;-72
2021/05/10 02:13:04;;;;;;;8.93;2.88;;;19.20;58.00;;;;;;5043831;28;20144;-72
2021/05/10 02:15:36;;;;;;;5.88;2.55;;;19.20;58.00;;;;;;5043500;28;20067;-72
2021/05/10 02:18:03;;;;;;;6.80;2.80;;;19.10;58.00;;;;;;5043170;28;20465;-72
2021/05/10 02:20:31;;;;;;;6.05;2.83;;;19.00;58.10;;;;;;5044860;28;20106;-72
2021/05/10 02:23:03;;;;;;;6.45;3.33;;;19.00;57.90;;;;;;5038407;28;20087;-73
2021/05/10 02:25:33;;;;;;;5.03;3.35;;;19.10;57.90;;;;;;5044208;28;21423;-71
2021/05/10 02:27:59;;;;;;;4.68;2.67;;;19.10;57.80;;;;;;5042931;28;20041;-72
2021/05/10 02:30:27;;;;;;;3.60;2.90;;;19.10;57.90;;;;;;5042586;28;20079;-72
2021/05/10 02:32:54;;;;;;;6.75;2.80;;;19.10;57.80;;;;;;5039269;28;20119;-73
2021/05/10 02:35:21;;;;;;;4.53;3.15;;;19.10;57.70;;;;;;5037311;28;20401;-72
2021/05/10 02:37:49;;;;;;;5.05;2.67;;;19.20;57.60;;;;;;5042965;28;20091;-71
2021/05/10 02:40:16;;;;;;;6.28;2.80;;;19.20;57.40;;;;;;5044287;28;20048;-71
2021/05/10 02:42:44;;;;;;;7.20;3.08;;;19.10;57.60;;;;;;5040724;28;20052;-72
2021/05/10 02:45:11;;;;;;;6.30;2.78;;;19.10;57.50;;;;;;5044012;28;20066;-71
2021/05/10 02:47:39;;;;;;;4.28;2.58;;;19.20;57.50;;;;;;5042797;28;20073;-72
2021/05/10 02:50:09;;;;;;;5.65;2.40;;;19.20;57.50;;;;;;5041504;28;20048;-73
2021/05/10 02:52:36;;;;;;;5.25;2.72;;;19.20;57.40;;;;;;5043626;28;20106;-74
2021/05/10 02:55:04;;;;;;;7.72;2.65;;;19.10;57.50;;;;;;5042749;28;20122;-72
2021/05/10 02:57:31;;;;;;;3.28;2.40;;;19.10;57.30;;;;;;5044142;28;20952;-72
2021/05/10 02:59:57;;;;;;;3.97;2.33;;;19.20;57.30;;;;;;5042772;28;20053;-72
2021/05/10 03:02:23;;;;;;;3.40;2.20;;;19.30;57.10;;;;;;5041713;28;20573;-72
2021/05/10 03:04:50;;;;;;;4.88;2.40;;;19.20;56.90;;;;;;5037268;28;20118;-72
2021/05/10 03:07:17;;;;;;;5.22;2.13;;;19.20;56.90;;;;;;5041859;28;20052;-71
2021/05/10 03:09:45;;;;;;;7.05;2.53;;;19.20;57.00;;;;;;5040702;28;20053;-72
2021/05/10 03:12:11;;;;;;;4.05;2.22;;;19.20;57.00;;;;;;5043115;28;20099;-72
2021/05/10 03:14:37;;;;;;;3.88;2.35;;;19.30;57.00;;;;;;5040893;28;20072;-73
2021/05/10 03:17:04;;;;;;;4.10;2.33;;;19.30;57.00;;;;;;5041964;28;20126;-73
2021/05/10 03:19:31;;;;;;;2.90;2.08;;;19.30;56.80;;;;;;5043352;28;20045;-72
2021/05/10 03:21:57;;;;;;;5.32;2.17;;;19.40;56.70;;;;;;5040827;28;20106;-72
2021/05/10 03:24:24;;;;;;;4.88;2.00;;;19.40;56.60;;;;;;5042940;28;20056;-73
2021/05/10 03:26:51;;;;;;;2.72;2.13;;;19.30;57.00;;;;;;5042856;28;20108;-72
2021/05/10 03:29:17;;;;;;;2.42;1.98;;;19.30;56.60;;;;;;5039771;28;20083;-72
2021/05/10 03:31:43;;;;;;;6.07;2.30;;;19.30;56.70;;;;;;5042793;28;20052;-72
2021/05/10 03:34:10;;;;;;;3.58;1.90;;;19.30;56.80;;;;;;5039194;28;20049;-72
2021/05/10 03:36:36;;;;;;;2.17;1.95;;;19.20;57.20;;;;;;5040908;28;20052;-72
2021/05/10 03:39:04;;;;;;;5.20;2.17;;;19.20;56.80;;;;;;5041708;28;20049;-71
2021/05/10 03:41:30;;;;;;;5.93;2.22;;;19.20;56.80;;;;;;5042063;28;20048;-71
2021/05/10 03:43:57;;;;;;;6.72;1.80;;;19.30;56.80;;;;;;5041746;28;20056;-72
2021/05/10 03:46:25;;;;;;;2.53;2.00;;;19.30;56.50;;;;;;5041615;28;20458;-72
2021/05/10 03:48:52;;;;;;;3.05;1.50;;;19.30;56.30;;;;;;5041770;28;20076;-72
2021/05/10 03:51:18;;;;;;;5.75;1.80;;;19.40;55.10;;;;;;5042716;28;20099;-71
2021/05/10 03:53:45;;;;;;;2.17;1.60;;;19.50;55.60;;;;;;5042291;28;20076;-71
2021/05/10 03:56:11;;;;;;;3.63;1.95;;;19.50;55.00;;;;;;5042478;28;20095;-72
2021/05/10 03:58:39;;;;;;;3.30;1.60;;;19.60;53.70;;;;;;5041454;28;20044;-72
2021/05/10 04:01:07;;;;;;;4.18;1.40;;;19.80;52.90;;;;;;5041841;28;20760;-74
2021/05/10 04:03:39;;;;;;;2.85;1.52;;;19.80;52.30;;;;;;5042979;28;20084;-72
2021/05/10 04:09:04;;;;;;;6.63;1.63;;;20.20;50.60;;;;;;5037314;28;20102;-72
2021/05/10 04:14:16;;;;;;;4.70;1.55;;;20.20;50.50;;;;;;5042760;28;20976;-72
2021/05/10 04:16:42;;;;;;;4.15;1.42;;;20.10;50.70;;;;;;5041112;28;20098;-74
2021/05/10 04:19:08;;;;;;;5.13;1.55;;;20.10;50.70;;;;;;5042055;28;20045;-72
2021/05/10 04:21:35;;;;;;;6.82;1.70;;;20.00;51.30;;;;;;5045010;28;20045;-73
2021/05/10 04:24:01;;;;;;;3.63;1.75;;;19.90;52.00;;;;;;5045869;28;20131;-72
2021/05/10 04:26:27;;;;;;;3.35;1.77;;;19.70;52.50;;;;;;5044943;28;20084;-73
2021/05/10 04:28:54;;;;;;;2.45;1.65;;;19.70;53.40;;;;;;5046138;28;20222;-72
2021/05/10 04:31:20;;;;;;;5.03;1.67;;;19.60;53.50;;;;;;5045406;28;20526;-71
2021/05/10 04:33:47;;;;;;;3.95;1.60;;;19.50;54.10;;;;;;5046521;28;20134;-71
2021/05/10 04:36:13;;;;;;;2.47;1.50;;;19.40;54.30;;;;;;5042813;28;20052;-72
2021/05/10 04:38:43;;;;;;;2.08;1.55;;;19.30;54.70;;;;;;5045638;28;20081;-72
2021/05/10 04:41:10;;;;;;;7.50;2.00;;;19.30;55.10;;;;;;5046469;28;20080;-73
2021/05/10 04:43:37;;;;;;;5.03;1.50;;;19.30;55.20;;;;;;5038802;28;20564;-72
2021/05/10 04:46:07;;;;;;;6.47;1.85;;;19.20;55.30;;;;;;5046096;28;20459;-72
2021/05/10 04:48:33;;;;;;;2.05;1.35;;;19.30;55.30;;;;;;5045391;28;20848;-72
2021/05/10 04:51:00;;;;;;;2.90;1.70;;;19.30;55.20;;;;;;5044023;28;20123;-71
2021/05/10 04:53:26;;;;;;;5.97;1.75;;;19.30;55.40;;;;;;5044313;28;20130;-73
2021/05/10 04:55:52;;;;;;;2.38;1.65;;;19.20;55.30;;;;;;5044369;28;20107;-73
2021/05/10 04:58:19;;;;;;;3.83;1.88;;;19.20;55.50;;;;;;5043738;28;20072;-72
2021/05/10 05:00:45;;;;;;;3.35;2.20;;;19.20;55.70;;;;;;5044662;28;20073;-72
2021/05/10 05:03:12;;;;;;;4.60;2.08;;;19.20;55.80;;;;;;5043225;28;20060;-73
2021/05/10 05:05:38;;;;;;;3.33;1.83;;;19.30;55.80;;;;;;5044941;28;20057;-72
2021/05/10 05:08:04;;;;;;;5.55;1.85;;;19.30;55.90;;;;;;5044877;28;20464;-71
2021/05/10 05:10:31;;;;;;;4.30;2.00;;;19.40;55.80;;;;;;5044691;28;20166;-73
2021/05/10 05:12:57;;;;;;;4.85;1.95;;;19.50;55.70;;;;;;5040783;28;20049;-74
2021/05/10 05:15:24;;;;;;;2.10;1.80;;;19.40;55.90;;;;;;5044035;28;20135;-72
2021/05/10 05:17:50;;;;;;;5.10;2.10;;;19.40;55.90;;;;;;5043118;28;20457;-73
2021/05/10 05:20:18;;;;;;;2.55;1.83;;;19.50;55.90;;;;;;5045694;28;20119;-72
2021/05/10 05:22:45;;;;;;;5.90;1.90;;;19.60;55.70;;;;;;5044158;28;20401;-72
2021/05/10 05:25:12;;;;;;;6.35;1.92;;;19.50;56.00;;;;;;5044088;28;20044;-73
2021/05/10 05:27:38;;;;;;;7.88;2.05;;;19.60;56.00;;;;;;5045705;28;20052;-72
2021/05/10 05:30:06;;;;;;;3.80;2.28;;;19.60;56.10;;;;;;5044468;28;20139;-72
2021/05/10 05:32:33;;;;;;;4.03;2.28;;;19.60;56.30;;;;;;5042568;28;20049;-72
2021/05/10 05:35:02;;;;;;;4.03;2.10;;;19.60;56.30;;;;;;5043943;28;20381;-72
2021/05/10 05:37:29;;;;;;;5.68;2.03;;;19.70;56.20;;;;;;5043509;28;20064;-72
2021/05/10 05:39:55;;;;;;;16.23;3.15;;;19.70;56.40;;;;;;5043685;28;20049;-72
2021/05/10 05:42:22;;;;;;;20.25;3.85;;;19.70;56.90;;;;;;5038702;28;20072;-72
2021/05/10 05:44:51;;;;;;;12.13;3.08;;;19.60;56.50;;;;;;5043779;28;20051;-73
2021/05/10 05:47:35;;;;;;;8.82;2.90;;;19.60;56.50;;;;;;5043024;28;20049;-72
2021/05/10 05:50:02;;;;;;;8.85;2.83;;;19.80;56.50;;;;;;5042203;28;20704;-71
2021/05/10 05:52:29;;;;;;;7.60;2.63;;;19.80;57.70;;;;;;5042372;28;20057;-72
2021/05/10 05:54:56;;;;;;;9.93;2.85;;;19.90;57.70;;;;;;5044545;28;20586;-72
2021/05/10 05:57:23;;;;;;;9.65;3.00;;;19.90;58.00;;;;;;5044674;28;20403;-71
2021/05/10 05:59:49;;;;;;;8.80;3.13;;;20.00;58.30;;;;;;5043890;28;20057;-71
2021/05/10 06:02:16;;;;;;;7.75;2.58;;;20.00;59.10;;;;;;5044497;28;20060;-73
2021/05/10 06:04:42;;;;;;;8.40;2.97;;;20.00;58.30;;;;;;5043791;28;20085;-73
2021/05/10 06:07:08;;;;;;;8.10;2.38;;;20.00;59.10;;;;;;5045654;28;20114;-73
2021/05/10 06:09:35;;;;;;;6.63;2.75;;;20.10;58.00;;;;;;5044383;28;20080;-71
2021/05/10 06:12:01;;;;;;;7.43;2.70;;;20.10;58.10;;;;;;5039219;28;20114;-73
2021/05/10 06:14:28;;;;;;;11.23;3.10;;;20.30;58.70;;;;;;5043810;28;20095;-71
2021/05/10 06:16:54;;;;;;;11.73;2.50;;;20.50;58.30;;;;;;5044255;28;20060;-72
2021/05/10 06:19:21;;;;;;;9.45;2.33;;;20.90;57.30;;;;;;5043778;28;20076;-71
2021/05/10 06:21:47;;;;;;;5.40;1.95;;;21.20;55.80;;;;;;5042820;28;20092;-72
2021/05/10 06:24:14;;;;;;;6.90;2.10;;;21.00;55.60;;;;;;5043183;28;20076;-71
2021/05/10 06:26:42;;;;;;;5.97;2.20;;;20.70;56.40;;;;;;5041941;28;20131;-72
2021/05/10 06:29:08;;;;;;;6.15;2.40;;;20.50;56.60;;;;;;5063693;28;20110;-72
2021/05/10 06:31:34;;;;;;;9.55;3.00;;;20.30;57.20;;;;;;5043304;28;20107;-72
2021/05/10 06:34:05;;;;;;;10.10;2.47;;;20.30;57.70;;;;;;5039680;28;20057;-72
2021/05/10 06:36:31;;;;;;;;;;;20.20;57.30;;;;;;5043661;28;20118;-71
2021/05/10 06:38:58;;;;;;;9.82;2.90;;;20.20;57.70;;;;;;5043084;28;20351;-72
2021/05/10 06:41:24;;;;;;;7.00;2.28;;;20.20;58.20;;;;;;5042005;28;20068;-74
2021/05/10 06:43:50;;;;;;;5.70;2.55;;;20.10;58.40;;;;;;5040939;28;20053;-73
2021/05/10 06:46:17;;;;;;;8.88;2.38;;;20.10;58.10;;;;;;5041718;28;20507;-73
2021/05/10 06:48:43;;;;;;;8.10;2.40;;;20.20;58.40;;;;;;5042478;28;21338;-72
2021/05/10 06:51:10;;;;;;;8.38;2.08;;;20.20;57.70;;;;;;5042164;28;20065;-72
2021/05/10 06:53:36;;;;;;;5.85;2.25;;;20.20;57.70;;;;;;5042505;28;20053;-72
2021/05/10 06:56:03;;;;;;;6.55;2.40;;;20.20;57.70;;;;;;5042413;28;20061;-73
2021/05/10 06:58:29;;;;;;;7.03;2.30;;;20.10;57.80;;;;;;5043354;28;20053;-73
2021/05/10 07:00:56;;;;;;;6.07;2.38;;;20.30;57.80;;;;;;5039004;28;20081;-72
2021/05/10 07:03:23;;;;;;;9.98;3.08;;;20.40;57.60;;;;;;5041351;28;20488;-73
2021/05/10 07:05:50;;;;;;;7.43;2.30;;;20.60;57.60;;;;;;5042911;28;20075;-74
2021/05/10 07:08:17;;;;;;;2.35;1.48;;;20.60;57.00;;;;;;5041533;28;20057;-73
2021/05/10 07:10:49;;;;;;;3.72;1.50;;;20.70;55.40;;;;;;5043021;28;20052;-72
2021/05/10 07:13:16;;;;;;;6.90;1.50;;;20.70;55.00;;;;;;5043247;28;20546;-72
2021/05/10 07:15:43;;;;;;;6.07;1.40;;;20.80;54.50;;;;;;5040170;28;20049;-73
2021/05/10 07:18:14;;;;;;;4.95;1.60;;;21.00;54.60;;;;;;5043007;28;20053;-72
2021/05/10 07:20:44;;;;;;;6.78;1.98;;;21.10;54.30;;;;;;5042852;28;20045;-73
2021/05/10 07:23:14;;;;;;;4.93;1.40;;;21.00;54.90;;;;;;5042601;28;20543;-73
2021/05/10 07:25:49;;;;;;;5.32;1.85;;;21.10;54.80;;;;;;5037893;28;20118;-72
2021/05/10 07:28:18;;;;;;;2.88;1.70;;;21.40;54.70;;;;;;5037843;28;20060;-73
2021/05/10 07:30:45;;;;;;;7.97;2.03;;;21.30;54.70;;;;;;5040478;28;20095;-73
2021/05/10 07:33:12;;;;;;;9.05;1.90;;;21.20;55.20;;;;;;5041895;28;20666;-73
2021/05/10 07:35:39;;;;;;;10.32;1.92;;;21.30;55.20;;;;;;5041316;28;20049;-73
2021/05/10 07:38:06;;;;;;;4.82;2.03;;;21.40;55.20;;;;;;5039514;28;20751;-72
2021/05/10 07:40:32;;;;;;;13.73;2.47;;;21.60;55.00;;;;;;5040803;28;20064;-73
2021/05/10 07:43:00;;;;;;;10.70;2.72;;;21.60;54.90;;;;;;5040914;28;20451;-74
2021/05/10 07:45:27;;;;;;;5.22;1.80;;;21.60;54.30;;;;;;5041679;28;20168;-73
2021/05/10 07:47:55;;;;;;;7.80;1.77;;;21.50;54.30;;;;;;5040678;28;20092;-73
2021/05/10 07:50:23;;;;;;;6.38;1.70;;;21.60;54.10;;;;;;5040966;28;20079;-73
2021/05/10 07:52:50;;;;;;;4.95;1.80;;;21.80;54.20;;;;;;5042222;28;20678;-74
2021/05/10 07:55:18;;;;;;;7.13;1.63;;;21.70;54.40;;;;;;5041411;28;20080;-73
2021/05/10 07:57:46;;;;;;;3.17;1.13;;;21.40;54.10;;;;;;5046607;28;20096;-73
2021/05/10 08:00:21;;;;;;;7.35;1.38;;;21.30;53.30;;;;;;5041755;28;20048;-73
2021/05/10 08:02:51;;;;;;;3.13;1.42;;;21.30;53.40;;;;;;5041212;28;20075;-75
2021/05/10 08:05:17;;;;;;;8.20;1.10;;;21.20;53.60;;;;;;5042989;28;20060;-73
2021/05/10 08:07:44;;;;;;;1.08;0.77;;;21.10;53.10;;;;;;5042298;28;20084;-74
2021/05/10 08:10:11;;;;;;;1.58;0.90;;;21.00;53.20;;;;;;5044675;28;20057;-80
2021/05/10 08:12:38;;;;;;;3.75;1.35;;;20.90;53.20;;;;;;5044951;28;20049;-74
2021/05/10 08:15:05;;;;;;;2.28;0.80;;;20.70;53.20;;;;;;5041540;28;20068;-68
2021/05/10 08:17:34;;;;;;;1.60;0.65;;;20.80;53.70;;;;;;5044435;28;20664;-69
2021/05/10 08:20:01;;;;;;;3.10;0.88;;;20.80;53.00;;;;;;5043809;28;20658;-69
2021/05/10 08:22:27;;;;;;;3.85;0.88;;;20.80;52.70;;;;;;5042661;28;20075;-69
2021/05/10 08:24:54;;;;;;;2.60;0.93;;;21.00;52.90;;;;;;5045520;28;20060;-73
2021/05/10 08:27:21;;;;;;;5.43;1.15;;;21.10;52.60;;;;;;5042935;28;20460;-73
2021/05/10 08:29:47;;;;;;;2.42;0.77;;;21.10;52.60;;;;;;5043934;28;20163;-73
2021/05/10 08:32:13;;;;;;;2.38;0.75;;;21.00;52.20;;;;;;5042350;28;20675;-73
2021/05/10 08:34:40;;;;;;;5.07;1.00;;;20.90;52.70;;;;;;5037685;28;20148;-73
2021/05/10 08:37:06;;;;;;;0.75;0.60;;;21.00;52.60;;;;;;5043502;28;20152;-73
2021/05/10 08:39:33;;;;;;;1.80;0.80;;;21.00;52.20;;;;;;5058182;28;20049;-72
2021/05/10 08:42:00;;;;;;;0.82;0.50;;;21.00;52.10;;;;;;5044050;28;20145;-73
2021/05/10 08:44:27;;;;;;;2.22;0.60;;;21.20;51.90;;;;;;5044894;28;20056;-72
2021/05/10 08:46:54;;;;;;;3.13;0.70;;;21.30;51.80;;;;;;5042228;28;20183;-73
2021/05/10 08:49:22;;;;;;;3.63;0.75;;;21.50;51.60;;;;;;5046519;28;20084;-72
2021/05/10 08:51:49;;;;;;;2.03;0.55;;;21.30;51.40;;;;;;5044347;28;20128;-72
2021/05/10 08:54:25;;;;;;;0.93;0.60;;;21.30;51.10;;;;;;5045133;28;20500;-72
2021/05/10 08:56:53;;;;;;;0.60;0.52;;;21.30;51.40;;;;;;5044867;28;20103;-73
2021/05/10 08:59:21;;;;;;;2.50;0.50;;;21.30;50.30;;;;;;5041047;28;20107;-73
2021/05/10 09:01:54;;;;;;;1.10;0.50;;;21.50;50.40;;;;;;5045293;28;20048;-74
2021/05/10 09:04:38;;;;;;;1.73;0.60;;;21.20;50.70;;;;;;5043588;28;20053;-73
2021/05/10 09:07:17;;;;;;;3.30;0.70;;;21.10;50.80;;;;;;5045483;28;20060;-73
2021/05/10 09:09:56;;;;;;;2.33;0.65;;;21.10;50.80;;;;;;5046596;28;20139;-85
2021/05/10 09:12:38;;;;;;;2.90;0.50;;;21.00;51.00;;;;;;5046092;28;20098;-74
2021/05/10 09:15:30;;;;;;;2.92;0.60;;;21.00;50.50;;;;;;5044234;28;20209;-75
2021/05/10 09:18:01;;;;;;;0.75;0.55;;;21.00;50.40;;;;;;5044130;28;20057;-75
2021/05/10 09:20:39;;;;;;;1.38;0.60;;;21.10;50.60;;;;;;5044299;28;20080;-75
2021/05/10 09:23:12;;;;;;;1.65;0.77;;;21.00;51.10;;;;;;5043642;28;20059;-75
2021/05/10 09:25:44;;;;;;;1.35;0.60;;;21.10;51.30;;;;;;5043090;28;20057;-75
2021/05/10 09:28:21;;;;;;;1.08;0.50;;;21.00;51.10;;;;;;5042754;28;20674;-75
2021/05/10 09:30:51;;;;;;;1.05;0.40;;;21.00;51.50;;;;;;5044700;28;20562;-75
2021/05/10 09:33:23;;;;;;;1.20;0.50;;;20.90;51.90;;;;;;5043707;28;20077;-74
2021/05/10 09:36:07;;;;;;;2.25;0.60;;;21.10;51.80;;;;;;5043823;28;20119;-75
2021/05/10 09:38:38;;;;;;;1.63;0.60;;;21.10;51.00;;;;;;5045622;28;20559;-75
2021/05/10 09:41:09;;;;;;;2.67;0.60;;;21.30;51.10;;;;;;5042146;28;20048;-75
2021/05/10 09:43:37;;;;;;;1.10;0.60;;;21.50;51.00;;;;;;5044399;28;20660;-75
2021/05/10 09:46:13;;;;;;;1.17;0.50;;;21.50;50.40;;;;;;5043693;28;20049;-76
2021/05/10 09:49:03;;;;;;;2.97;0.80;;;21.40;50.70;;;;;;5043237;28;20049;-75
2021/05/10 09:51:29;;;;;;;3.10;1.42;;;21.40;50.50;;;;;;5045515;28;20090;-75
2021/05/10 09:53:57;;;;;;;5.55;1.92;;;21.60;50.40;;;;;;5042581;28;20138;-75
2021/05/10 09:59:05;;;;;;;8.45;3.83;;;21.40;49.40;;;;;;5041441;28;21137;-75
2021/05/10 10:01:48;;;;;;;6.55;2.40;;;21.00;49.60;;;;;;5044126;28;20132;-72
2021/05/10 10:04:20;;;;;;;5.72;2.53;;;21.00;49.80;;;;;;5042707;28;20057;-74
2021/05/10 10:06:47;;;;;;;7.97;3.03;;;21.10;49.90;;;;;;5044146;28;20041;-75
2021/05/10 10:09:14;;;;;;;5.75;2.75;;;21.00;50.30;;;;;;5044214;28;20056;-74
2021/05/10 10:11:41;;;;;;;3.90;1.52;;;20.80;50.60;;;;;;5043594;28;20049;-75
2021/05/10 10:14:09;;;;;;;5.18;2.25;;;20.80;51.10;;;;;;5041772;28;20152;-75
2021/05/10 10:16:36;;;;;;;5.57;2.10;;;20.70;51.10;;;;;;5041418;28;20076;-75
2021/05/10 10:19:06;;;;;;;4.80;2.17;;;20.60;51.60;;;;;;5042334;28;20155;-75
2021/05/10 10:21:39;;;;;;;5.32;1.88;;;20.50;51.40;;;;;;5042973;28;20052;-74
2021/05/10 10:23:59;;;;;;;;;3.25;1.75;;;;;20.86;54.51;97997.16;5035527;28;45601;-59
2021/05/10 10:24:09;;;;;;;8.93;1.75;;;20.60;51.30;;;;;;5041250;28;20186;-74
2021/05/10 10:26:56;;;;;;;3.15;0.93;;;20.70;51.30;;;;;;5042533;28;20052;-75
2021/05/10 10:29:25;;;;;;;1.98;1.17;;;20.80;50.80;;;;;;5043280;28;20049;-74
2021/05/10 10:31:54;;;;;;;2.30;1.05;;;20.90;51.60;;;;;;5043131;28;20091;-75
2021/05/10 10:34:29;;;;;;;2.03;0.80;;;20.80;51.80;;;;;;5038568;28;20041;-75
2021/05/10 10:36:59;;;;;;;2.00;0.88;;;20.90;51.00;;;;;;5042184;28;20047;-77
2021/05/10 10:39:32;;;;;;;1.42;0.70;;;21.00;50.70;;;;;;5041035;28;20053;-78
2021/05/10 10:42:06;;;;;;;2.00;0.60;;;21.10;50.40;;;;;;5043927;28;20063;-76
2021/05/10 10:44:45;;;;;;;1.30;0.70;;;21.50;50.30;;;;;;5042240;28;20056;-78
2021/05/10 10:47:14;;;;;;;1.88;0.65;;;21.40;50.00;;;;;;5042689;28;20178;-76
2021/05/10 10:49:42;;;;;;;1.15;0.52;;;21.90;49.80;;;;;;5042698;28;20049;-75
2021/05/10 10:52:24;;;;;;;1.60;0.50;;;21.70;49.50;;;;;;5041071;28;20462;-75
2021/05/10 10:55:16;;;;;;;5.30;0.70;;;21.80;49.50;;;;;;5041292;28;20082;-74
2021/05/10 10:57:43;;;;;;;1.65;0.55;;;22.00;49.50;;;;;;5043371;28;20053;-74
2021/05/10 11:00:18;;;;;;;0.68;0.30;;;21.80;49.30;;;;;;5042760;28;20061;-74
2021/05/10 11:02:47;;;;;;;1.15;0.38;;;21.90;49.20;;;;;;5041069;28;20147;-75
2021/05/10 11:05:17;;;;;;;1.50;0.80;;;22.10;49.20;;;;;;5039135;28;20088;-74
2021/05/10 11:07:55;;;;;;;1.73;0.60;;;22.30;49.10;;;;;;5044339;28;20106;-74
2021/05/10 11:10:48;;;;;;;1.55;1.05;;;22.10;48.70;;;;;;5045909;28;20060;-74
2021/05/10 11:13:26;;;;;;;1.00;0.60;;;21.70;48.80;;;;;;5034706;28;20045;-74
2021/05/10 11:16:05;;;;;;;2.45;0.50;;;21.50;49.40;;;;;;5048100;28;20099;-74
2021/05/10 11:18:33;;;;;;;0.60;0.32;;;21.30;49.50;;;;;;5046641;28;20056;-75
2021/05/10 11:21:00;;;;;;;1.70;0.45;;;21.20;48.80;;;;;;5045590;28;20045;-74
2021/05/10 11:23:26;;;;;;;1.80;0.55;;;21.00;49.40;;;;;;5048686;28;20148;-75
2021/05/10 11:25:55;;;;;;;1.75;0.68;;;21.00;49.90;;;;;;5047140;28;20091;-74
2021/05/10 11:28:24;;;;;;;0.68;0.40;;;21.00;49.90;;;;;;5036219;28;20090;-75
2021/05/10 11:31:02;;;;;;;2.38;0.70;;;20.90;50.00;;;;;;5048582;28;20046;-75
2021/05/10 11:36:27;;;;;;;0.77;0.30;;;20.70;50.30;;;;;;5040018;28;20069;-75
2021/05/10 11:39:06;;;;;;;0.55;0.40;;;20.60;50.50;;;;;;5052188;28;20131;-74
2021/05/10 11:41:36;;;;;;;1.08;0.40;;;20.50;50.70;;;;;;5049315;28;20044;-75
2021/05/10 11:44:04;;;;;;;1.17;0.50;;;20.70;50.40;;;;;;5044635;28;20057;-75
2021/05/10 11:46:42;;;;;;;1.63;0.50;;;20.60;50.60;;;;;;5047049;28;20695;-75
2021/05/10 11:49:29;;;;;;;1.48;0.45;;;20.70;50.50;;;;;;5047914;28;20048;-72
2021/05/10 11:52:07;;;;;;;0.30;0.30;;;20.60;50.60;;;;;;5060028;28;20080;-73
2021/05/10 11:54:34;;;;;;;0.22;0.20;;;20.50;50.30;;;;;;5052337;28;20091;-73
2021/05/10 11:57:04;;;;;;;0.90;0.50;;;20.50;50.80;;;;;;5046920;28;20144;-74
2021/05/10 12:02:17;;;;;;;1.50;0.60;;;20.60;50.50;;;;;;5048392;28;20060;-74
2021/05/10 12:04:48;;;;;;;0.75;0.50;;;20.50;50.90;;;;;;5047504;28;20037;-73
2021/05/10 12:07:14;;;;;;;;;;;20.50;51.00;;;;;;5055776;28;20365;-74
2021/05/10 12:09:46;;;;;;;1.35;0.40;;;20.60;51.00;;;;;;5047670;28;20318;-75
2021/05/10 12:12:12;;;;;;;1.98;0.47;;;20.60;51.20;;;;;;5061201;28;20049;-75
2021/05/10 12:14:47;;;;;;;1.65;0.65;;;20.70;51.30;;;;;;5045597;28;20045;-75
2021/05/10 12:17:15;;;;;;;1.33;0.52;;;20.80;51.20;;;;;;5039520;28;20072;-74
2021/05/10 12:19:56;;;;;;;0.82;0.40;;;20.70;52.20;;;;;;5044687;28;20224;-75
2021/05/10 12:22:23;;;;;;;9.20;0.80;;;20.70;52.20;;;;;;5045576;28;20041;-76
2021/05/10 12:25:18;;;;;;;0.75;0.32;;;20.80;52.10;;;;;;5047196;28;20054;-74
2021/05/10 12:27:49;;;;;;;2.25;0.50;;;20.80;52.10;;;;;;5048244;28;20526;-74
2021/05/10 12:30:20;;;;;;;1.38;0.73;;;20.40;53.10;;;;;;5046229;28;20122;-74
2021/05/10 12:32:50;;;;;;;8.77;4.03;;;20.10;54.20;;;;;;5047186;28;20053;-82
2021/05/10 12:35:20;;;;;;;1.20;0.70;;;20.00;55.70;;;;;;5045470;28;20061;-80
2021/05/10 12:37:49;;;;;;;1.93;0.50;;;20.00;56.20;;;;;;5051136;28;20052;-83
2021/05/10 12:40:22;;;;;;;1.67;0.40;;;19.90;56.00;;;;;;5052118;28;20076;-85
2021/05/10 12:43:03;;;;;;;0.75;0.40;;;20.00;56.90;;;;;;5044871;28;20053;-83
2021/05/10 12:45:31;;;;;;;1.45;0.55;;;19.80;57.40;;;;;;5052245;28;20525;-80
2021/05/10 12:47:58;;;;;;;0.60;0.50;;;19.60;58.00;;;;;;5047839;28;20058;-80
2021/05/10 12:50:41;;;;;;;0.35;0.35;;;19.30;58.60;;;;;;5049834;28;20049;-76
2021/05/10 12:53:08;;;;;;;1.65;0.68;;;19.30;58.80;;;;;;5045996;28;20445;-75
2021/05/10 12:55:38;;;;;;;1.77;0.50;;;19.30;59.60;;;;;;5046295;28;20057;-71
2021/05/10 12:58:22;;;;;;;2.80;0.45;;;19.10;59.00;;;;;;5047937;28;20161;-71
2021/05/10 13:00:53;;;;;;;1.42;0.75;;;18.20;62.30;;;;;;5046504;28;20139;-74
2021/05/10 13:03:28;;;;;;;8.52;0.80;;;18.60;61.50;;;;;;5050843;28;20110;-83
2021/05/10 13:05:56;;;;;;;0.85;0.60;;;18.70;65.00;;;;;;5045398;28;20500;-75
2021/05/10 13:08:46;;;;;;;3.00;0.63;;;18.70;65.80;;;;;;5052010;28;20053;-76